Time;durP1;ratioP1;P1;durP2;ratioP2;P2;SDS_P1;SDS_P2;PMS_P1;PMS_P2;Temp;Humidity;BMP_temperature;BMP_pressure;BME280_temperature;BME280_humidity;BME280_pressure;Samples;Min_cycle;Max_cycle;Signal;HPM_P1;HPM_P2
2023/03/01 00:00:11;;;;;;;4.95;2.70;;;;;;;2.18;95.73;102902.84;5085537;28;20058;-66
2023/03/01 00:02:37;;;;;;;4.13;2.78;;;;;;;2.11;95.33;102905.00;5083738;28;20062;-65
2023/03/01 00:05:04;;;;;;;6.57;2.90;;;;;;;2.13;96.03;102907.59;5081728;28;20032;-65
2023/03/01 00:07:29;;;;;;;3.38;2.60;;;;;;;2.07;96.16;102894.69;5079330;28;20059;-65
2023/03/01 00:09:54;;;;;;;4.65;2.58;;;;;;;2.15;95.95;102903.03;5077772;28;20021;-65
2023/03/01 00:12:21;;;;;;;4.97;2.58;;;;;;;2.18;95.66;102908.16;5076379;28;20032;-64
2023/03/01 00:14:47;;;;;;;6.18;3.03;;;;;;;2.08;95.69;102910.50;5075121;28;20408;-65
2023/03/01 00:17:14;;;;;;;4.03;2.88;;;;;;;2.11;95.85;102907.66;5074903;28;20139;-65
2023/03/01 00:19:39;;;;;;;3.85;2.50;;;;;;;2.07;95.57;102910.63;5077117;28;20079;-65
2023/03/01 00:22:05;;;;;;;6.63;3.38;;;;;;;2.01;95.69;102918.94;5077391;28;20021;-65
2023/03/01 00:24:30;;;;;;;4.43;2.30;;;;;;;2.07;96.35;102913.28;5078409;28;20016;-65
2023/03/01 00:26:56;;;;;;;4.47;2.70;;;;;;;2.13;96.44;102904.94;5079332;28;20040;-65
2023/03/01 00:29:24;;;;;;;4.13;2.22;;;;;;;2.16;95.80;102910.06;5079070;28;20032;-65
2023/03/01 00:31:50;;;;;;;5.57;2.40;;;;;;;2.16;96.25;102910.06;5081122;28;20025;-65
2023/03/01 00:34:15;;;;;;;4.72;3.05;;;;;;;2.14;96.16;102913.75;5077864;28;20059;-65
2023/03/01 00:36:40;;;;;;;5.40;3.13;;;;;;;2.11;96.00;102918.28;5081572;28;20051;-65
2023/03/01 00:39:11;;;;;;;3.65;2.88;;;;;;;2.17;96.61;102909.09;5083479;28;20092;-65
2023/03/01 00:41:37;;;;;;;2.80;2.10;;;;;;;2.19;95.65;102917.84;5085071;28;20024;-65
2023/03/01 00:44:03;;;;;;;3.88;2.40;;;;;;;2.22;95.12;102920.31;5082652;28;20717;-65
2023/03/01 00:46:30;;;;;;;3.85;2.38;;;;;;;2.23;95.23;102916.72;5080053;28;20024;-65
2023/03/01 00:48:55;;;;;;;5.47;2.80;;;;;;;2.21;95.12;102921.25;5082088;28;20063;-65
2023/03/01 00:51:24;;;;;;;3.78;2.00;;;;;;;2.18;95.54;102916.13;5081721;28;20430;-65
2023/03/01 00:53:51;;;;;;;3.00;2.13;;;;;;;2.17;95.77;102911.75;5082925;28;20039;-65
2023/03/01 00:56:16;;;;;;;3.63;2.17;;;;;;;2.18;95.69;102917.94;5086809;28;20039;-65
2023/03/01 00:58:42;;;;;;;4.35;2.80;;;;;;;2.19;95.58;102919.66;5084057;28;20123;-65
2023/03/01 01:01:20;;;;;;;7.82;3.00;;;;;;;2.22;96.13;102914.13;5082150;28;20021;-65
2023/03/01 01:04:14;;;;;;;4.90;3.20;;;;;;;2.27;95.47;102909.41;5076379;28;20048;-65
2023/03/01 01:06:44;;;;;;;5.43;3.65;;;;;;;2.27;95.41;102912.06;5067269;28;20071;-66
2023/03/01 01:09:16;;;;;;;4.45;3.10;;;;;;;2.26;95.84;102911.22;5081104;28;20029;-65
2023/03/01 01:11:47;;;;;;;7.38;4.35;;;;;;;2.22;95.83;102912.34;5081054;28;20047;-65
2023/03/01 01:14:13;;;;;;;7.97;4.25;;;;;;;2.18;95.63;102912.63;5082833;28;20089;-65
2023/03/01 01:16:38;;;;;;;6.10;3.05;;;;;;;2.14;95.55;102914.59;5080281;28;20484;-65
2023/03/01 01:19:04;;;;;;;5.70;3.35;;;;;;;2.03;95.47;102912.59;5077099;28;20143;-65
2023/03/01 01:21:30;;;;;;;5.47;3.03;;;;;;;2.00;95.54;102903.97;5079535;28;20141;-65
2023/03/01 01:23:56;;;;;;;6.13;3.90;;;;;;;1.99;95.58;102912.88;5079825;28;20024;-65
2023/03/01 01:26:25;;;;;;;5.85;4.25;;;;;;;2.01;95.37;102905.66;5076554;28;20127;-65
2023/03/01 01:28:51;;;;;;;7.65;5.60;;;;;;;2.03;95.21;102901.97;5074814;28;20032;-65
2023/03/01 01:31:17;;;;;;;6.30;3.63;;;;;;;2.09;95.07;102904.28;5081671;28;20059;-65
2023/03/01 01:33:43;;;;;;;4.93;3.42;;;;;;;2.03;95.01;102894.00;5082266;28;20024;-65
2023/03/01 01:36:09;;;;;;;5.22;3.75;;;;;;;1.98;95.18;102889.91;5081803;28;20032;-65
2023/03/01 01:38:36;;;;;;;5.78;3.35;;;;;;;2.06;95.39;102903.59;5081666;28;20089;-66
2023/03/01 01:41:01;;;;;;;10.35;3.70;;;;;;;1.99;94.94;102889.84;5078580;28;20037;-65
2023/03/01 01:43:40;;;;;;;5.85;4.10;;;;;;;2.10;95.27;102894.50;5077332;28;20032;-65
2023/03/01 01:46:40;;;;;;;6.55;3.83;;;;;;;2.10;95.06;102891.84;5080183;28;20106;-65
2023/03/01 01:49:28;;;;;;;7.43;4.05;;;;;;;2.12;95.17;102900.59;5071255;28;20045;-65
2023/03/01 01:52:30;;;;;;;10.52;4.45;;;;;;;2.14;95.14;102896.00;5080791;28;20359;-65
2023/03/01 01:55:16;;;;;;;6.20;4.10;;;;;;;2.10;95.64;102899.81;5080722;28;20041;-65
2023/03/01 01:57:45;;;;;;;7.45;4.85;;;;;;;2.14;95.84;102896.00;5081756;28;20016;-65
2023/03/01 02:00:17;;;;;;;8.15;4.72;;;;;;;2.16;95.63;102899.44;5080389;28;20033;-65
2023/03/01 02:02:45;;;;;;;7.18;4.57;;;;;;;2.18;95.46;102889.56;5076315;28;20086;-64
2023/03/01 02:05:26;;;;;;;7.35;5.18;;;;;;;2.20;95.97;102885.03;5080239;28;20087;-64
2023/03/01 02:07:52;;;;;;;6.55;4.90;;;;;;;2.17;95.96;102879.91;5082789;28;20471;-65
2023/03/01 02:10:17;;;;;;;9.32;4.85;;;;;;;2.21;96.12;102870.78;5081560;28;20084;-65
2023/03/01 02:12:43;;;;;;;10.27;5.15;;;;;;;2.21;96.13;102876.09;5078024;28;20016;-65
2023/03/01 02:15:09;;;;;;;7.72;4.53;;;;;;;2.20;96.44;102874.41;5082538;28;20513;-65
2023/03/01 02:17:35;;;;;;;7.47;5.00;;;;;;;2.18;96.44;102872.78;5082216;28;20036;-65
2023/03/01 02:20:26;;;;;;;6.78;4.43;;;;;;;2.08;96.61;102853.88;5079781;28;20470;-65
2023/03/01 02:22:53;;;;;;;7.38;5.03;;;;;;;2.14;96.25;102858.84;5077051;28;20047;-65
2023/03/01 02:25:25;;;;;;;9.52;5.32;;;;;;;2.21;96.72;102861.97;5079561;28;20032;-65
2023/03/01 02:28:08;;;;;;;9.30;5.03;;;;;;;2.20;96.29;102858.47;5078731;28;20033;-64
2023/03/01 02:30:33;;;;;;;7.18;4.75;;;;;;;2.23;96.11;102852.13;5079702;28;20111;-64
2023/03/01 02:33:04;;;;;;;5.53;4.20;;;;;;;2.22;96.12;102871.63;5079295;28;20063;-65
2023/03/01 02:35:37;;;;;;;7.55;3.70;;;;;;;2.11;96.25;102862.53;5079880;28;20020;-65
2023/03/01 02:38:06;;;;;;;6.85;3.97;;;;;;;2.00;95.98;102867.66;5079385;28;20059;-65
2023/03/01 02:40:34;;;;;;;6.88;3.88;;;;;;;1.96;96.26;102866.13;5079363;28;20119;-65
2023/03/01 02:42:59;;;;;;;6.13;4.22;;;;;;;1.93;96.37;102858.34;5078998;28;20032;-65
2023/03/01 02:45:26;;;;;;;5.90;4.05;;;;;;;1.92;96.24;102858.41;5079372;28;20125;-65
2023/03/01 02:47:56;;;;;;;6.80;4.10;;;;;;;1.85;96.36;102858.81;5079100;28;20043;-65
2023/03/01 02:50:28;;;;;;;5.38;3.10;;;;;;;1.79;96.12;102853.00;5076319;28;20036;-65
2023/03/01 02:53:04;;;;;;;6.80;3.40;;;;;;;1.73;96.22;102850.72;5071366;28;20086;-65
2023/03/01 02:55:30;;;;;;;4.93;3.15;;;;;;;1.71;96.45;102856.09;5078549;28;20486;-65
2023/03/01 02:57:56;;;;;;;7.18;4.00;;;;;;;1.72;96.15;102863.13;5076367;28;20021;-64
2023/03/01 03:00:28;;;;;;;6.88;3.70;;;;;;;1.74;95.95;102858.59;5087930;28;20059;-65
2023/03/01 03:02:56;;;;;;;7.97;4.20;;;;;;;1.74;96.24;102853.28;5075912;28;20111;-65
2023/03/01 03:05:30;;;;;;;8.07;5.28;;;;;;;1.73;95.66;102850.72;5077982;28;20108;-64
2023/03/01 03:07:56;;;;;;;5.97;3.92;;;;;;;1.81;95.75;102853.75;5077941;28;20043;-65
2023/03/01 03:10:31;;;;;;;5.10;3.30;;;;;;;1.35;95.43;102782.19;5077784;28;20032;-65
2023/03/01 03:13:02;;;;;;;5.05;3.03;;;;;;;1.72;95.54;102855.16;5077940;28;20024;-64
2023/03/01 03:15:28;;;;;;;6.05;3.80;;;;;;;1.73;95.47;102856.03;5078219;28;20032;-65
2023/03/01 03:17:56;;;;;;;6.85;3.53;;;;;;;1.68;95.72;102850.97;5078216;28;20028;-65
2023/03/01 03:20:24;;;;;;;5.00;3.67;;;;;;;1.66;95.98;102850.22;5084280;28;20071;-65
2023/03/01 03:22:53;;;;;;;8.57;3.45;;;;;;;1.61;95.63;102858.44;5079748;28;20020;-65
2023/03/01 03:25:19;;;;;;;8.25;4.35;;;;;;;1.59;95.63;102852.41;5079528;28;20103;-65
2023/03/01 03:27:46;;;;;;;6.63;4.03;;;;;;;1.61;96.16;102854.94;5079508;28;20052;-64
2023/03/01 03:30:14;;;;;;;7.32;4.95;;;;;;;1.67;95.91;102856.38;5079172;28;20348;-64
2023/03/01 03:32:51;;;;;;;11.27;5.00;;;;;;;1.69;95.67;102844.75;5077780;28;20021;-64
2023/03/01 03:35:22;;;;;;;7.30;4.25;;;;;;;1.66;95.74;102839.63;5075129;28;20551;-64
2023/03/01 03:38:03;;;;;;;7.32;3.90;;;;;;;1.65;95.70;102846.69;5078345;28;20051;-65
2023/03/01 03:40:37;;;;;;;8.73;5.18;;;;;;;1.68;95.45;102847.47;5078538;28;20017;-64
2023/03/01 03:43:15;;;;;;;6.05;3.90;;;;;;;1.60;95.72;102835.53;5078238;28;20013;-64
2023/03/01 03:45:41;;;;;;;6.78;4.07;;;;;;;1.61;95.37;102852.28;5079682;28;20035;-65
2023/03/01 03:48:09;;;;;;;7.65;4.60;;;;;;;1.52;95.68;102845.72;5079835;28;20029;-64
2023/03/01 03:50:35;;;;;;;7.00;4.07;;;;;;;1.51;95.94;102844.00;5095399;28;20020;-64
2023/03/01 03:53:03;;;;;;;6.57;3.70;;;;;;;1.48;95.74;102840.69;5079342;28;20108;-65
2023/03/01 03:55:30;;;;;;;8.80;3.90;;;;;;;1.45;95.73;102841.72;5079295;28;20028;-64
2023/03/01 03:57:58;;;;;;;7.85;5.00;;;;;;;1.46;95.50;102848.75;5078617;28;20025;-64
2023/03/01 04:00:23;;;;;;;8.05;4.50;;;;;;;1.44;95.74;102847.13;5078593;28;20059;-64
2023/03/01 04:02:50;;;;;;;7.72;4.40;;;;;;;1.40;95.76;102849.09;5078960;28;20012;-65
2023/03/01 04:05:17;;;;;;;7.95;4.78;;;;;;;1.37;95.79;102839.53;5080590;28;20115;-64
2023/03/01 04:07:44;;;;;;;7.75;5.35;;;;;;;1.35;95.81;102846.69;5081689;28;20072;-64
2023/03/01 04:10:13;;;;;;;12.90;8.00;;;;;;;1.43;95.98;102845.44;5081680;28;20085;-64
2023/03/01 04:12:38;;;;;;;7.05;4.88;;;;;;;1.43;95.87;102848.06;5081970;28;20029;-66
2023/03/01 04:15:12;;;;;;;7.50;4.97;;;;;;;1.48;95.54;102856.59;5076815;28;20028;-65
2023/03/01 04:17:42;;;;;;;8.20;6.25;;;;;;;1.48;95.54;102846.00;5076925;28;20073;-64
2023/03/01 04:20:13;;;;;;;11.80;7.28;;;;;;;1.37;95.82;102846.63;5080436;28;20119;-65
2023/03/01 04:22:40;;;;;;;8.65;6.55;;;;;;;1.40;95.43;102851.75;5080468;28;20052;-64
2023/03/01 04:25:06;;;;;;;9.27;5.90;;;;;;;1.50;95.41;102860.03;5080586;28;20143;-64
2023/03/01 04:27:36;;;;;;;9.40;6.63;;;;;;;1.44;95.57;102850.63;5079320;28;20078;-65
2023/03/01 04:30:03;;;;;;;9.18;6.70;;;;;;;1.35;95.69;102846.69;5079031;28;20029;-65
2023/03/01 04:32:29;;;;;;;8.90;7.00;;;;;;;1.33;95.97;102853.91;5080197;28;20074;-65
2023/03/01 04:35:00;;;;;;;12.50;8.30;;;;;;;1.35;96.08;102853.81;5087314;28;20471;-65
2023/03/01 04:37:26;;;;;;;11.13;7.70;;;;;;;1.33;96.09;102845.94;5080361;28;20024;-65
2023/03/01 04:39:53;;;;;;;11.80;6.50;;;;;;;1.32;96.22;102843.38;5081823;28;20048;-65
2023/03/01 04:42:18;;;;;;;9.20;6.97;;;;;;;1.31;96.29;102841.66;5082102;28;20028;-64
2023/03/01 04:44:44;;;;;;;7.38;5.80;;;;;;;1.32;96.11;102836.25;5077885;28;20024;-64
2023/03/01 04:47:10;;;;;;;8.10;5.75;;;;;;;1.29;96.47;102839.13;5078851;28;20463;-65
2023/03/01 04:49:35;;;;;;;7.22;5.32;;;;;;;1.25;96.15;102826.97;5080390;28;20056;-65
2023/03/01 04:52:04;;;;;;;7.03;4.68;;;;;;;1.26;96.54;102826.03;5080496;28;20025;-64
2023/03/01 04:54:34;;;;;;;8.13;5.28;;;;;;;1.28;96.47;102826.78;5079138;28;20101;-64
2023/03/01 04:57:01;;;;;;;6.25;4.55;;;;;;;1.30;96.52;102824.06;5080053;28;20020;-64
2023/03/01 04:59:27;;;;;;;8.52;4.72;;;;;;;1.31;96.46;102831.91;5078894;28;20029;-65
2023/03/01 05:01:57;;;;;;;9.07;5.05;;;;;;;1.32;96.16;102830.09;5080394;28;20077;-65
2023/03/01 05:04:23;;;;;;;5.35;4.07;;;;;;;1.32;96.48;102827.47;5080758;28;20024;-65
2023/03/01 05:06:49;;;;;;;5.07;3.70;;;;;;;1.10;96.01;102796.03;5078897;28;20024;-64
2023/03/01 05:09:15;;;;;;;5.40;3.47;;;;;;;1.30;96.65;102822.25;5079502;28;20455;-64
2023/03/01 05:11:41;;;;;;;6.25;2.42;;;;;;;1.40;96.42;102815.47;5079343;28;20036;-64
2023/03/01 05:14:08;;;;;;;4.22;2.63;;;;;;;1.52;96.52;102826.28;5080289;28;20119;-65
2023/03/01 05:16:34;;;;;;;5.28;2.47;;;;;;;1.53;96.44;102817.41;5078792;28;20025;-65
2023/03/01 05:18:59;;;;;;;4.57;2.55;;;;;;;1.46;96.98;102822.22;5081318;28;20044;-65
2023/03/01 05:21:25;;;;;;;5.40;2.20;;;;;;;1.43;97.15;102809.13;5089850;28;20029;-65
2023/03/01 05:23:51;;;;;;;3.70;2.15;;;;;;;1.49;96.72;102824.69;5084672;28;20546;-66
2023/03/01 05:26:18;;;;;;;3.15;2.47;;;;;;;1.43;96.89;102818.91;5078031;28;20032;-65
2023/03/01 05:28:44;;;;;;;3.90;2.03;;;;;;;1.43;96.71;102813.59;5080341;28;20028;-64
2023/03/01 05:31:10;;;;;;;3.35;2.30;;;;;;;1.53;96.41;102817.41;5080010;28;20518;-65
2023/03/01 05:33:40;;;;;;;2.97;2.08;;;;;;;1.35;97.10;102817.53;5078895;28;20119;-65
2023/03/01 05:36:08;;;;;;;2.55;1.75;;;;;;;1.33;97.10;102814.13;5079639;28;20036;-65
2023/03/01 05:38:34;;;;;;;3.72;2.08;;;;;;;1.39;96.85;102819.06;5077725;28;20503;-65
2023/03/01 05:40:59;;;;;;;3.33;1.98;;;;;;;1.39;96.80;102808.47;5073480;28;20039;-65
2023/03/01 05:43:25;;;;;;;4.05;2.28;;;;;;;1.38;96.64;102805.88;5080024;28;20033;-65
2023/03/01 05:45:51;;;;;;;3.05;1.95;;;;;;;1.32;96.45;102801.78;5080897;28;20122;-65
2023/03/01 05:48:19;;;;;;;5.20;3.03;;;;;;;1.31;96.34;102809.84;5080519;28;20029;-65
2023/03/01 05:50:46;;;;;;;4.95;3.38;;;;;;;1.31;96.49;102818.66;5080230;28;20215;-64
2023/03/01 05:53:20;;;;;;;3.45;2.92;;;;;;;1.30;96.72;102819.59;5077657;28;20032;-65
2023/03/01 05:55:47;;;;;;;5.97;3.78;;;;;;;1.28;96.44;102817.97;5079048;28;20032;-64
2023/03/01 05:58:19;;;;;;;4.28;3.17;;;;;;;1.24;96.13;102821.75;5078906;28;20052;-64
2023/03/01 06:00:47;;;;;;;8.80;3.92;;;;;;;1.23;96.18;102828.88;5077606;28;20085;-64
2023/03/01 06:03:15;;;;;;;5.13;4.13;;;;;;;1.22;96.47;102828.94;5077291;28;20024;-64
2023/03/01 06:05:41;;;;;;;6.13;4.18;;;;;;;1.25;95.87;102832.25;5075861;28;20025;-64
2023/03/01 06:08:07;;;;;;;4.45;3.90;;;;;;;1.26;95.43;102836.66;5076279;28;20021;-64
2023/03/01 06:10:33;;;;;;;4.82;3.97;;;;;;;1.29;95.79;102841.78;5077291;28;20035;-64
2023/03/01 06:12:58;;;;;;;5.63;3.63;;;;;;;1.31;95.50;102844.31;5078169;28;20039;-65
2023/03/01 06:15:24;;;;;;;5.97;3.83;;;;;;;1.30;95.28;102834.66;5077720;28;20046;-64
2023/03/01 06:17:50;;;;;;;4.82;3.90;;;;;;;1.15;95.54;102841.69;5078425;28;20126;-65
2023/03/01 06:20:17;;;;;;;6.18;3.60;;;;;;;1.14;96.03;102842.66;5079147;28;20454;-64
2023/03/01 06:22:43;;;;;;;4.60;3.67;;;;;;;1.15;96.12;102852.31;5079326;28;20036;-64
2023/03/01 06:25:10;;;;;;;6.53;3.55;;;;;;;1.16;96.00;102854.88;5078849;28;20028;-65
2023/03/01 06:27:35;;;;;;;4.72;3.28;;;;;;;1.18;95.92;102857.44;5079292;28;20033;-64
2023/03/01 06:30:01;;;;;;;5.75;3.88;;;;;;;1.26;95.42;102857.88;5078305;28;20043;-64
2023/03/01 06:32:27;;;;;;;8.52;3.90;;;;;;;1.26;95.98;102860.50;5077425;28;20064;-64
2023/03/01 06:34:52;;;;;;;4.38;3.38;;;;;;;1.27;95.80;102867.53;5077966;28;20048;-65
2023/03/01 06:37:18;;;;;;;6.50;3.92;;;;;;;1.28;95.80;102873.69;5077701;28;20129;-65
2023/03/01 06:39:43;;;;;;;5.15;3.17;;;;;;;1.27;96.06;102874.63;5076061;28;20038;-64
2023/03/01 06:42:12;;;;;;;3.72;2.85;;;;;;;1.22;95.94;102864.25;5077808;28;20027;-64
2023/03/01 06:44:37;;;;;;;5.53;2.63;;;;;;;1.33;96.03;102874.28;5078536;28;20029;-64
2023/03/01 06:47:03;;;;;;;2.50;1.90;;;;;;;1.51;95.44;102872.34;5077976;28;20105;-65
2023/03/01 06:49:29;;;;;;;5.38;2.65;;;;;;;1.54;95.51;102874.81;5077307;28;20119;-64
2023/03/01 06:51:55;;;;;;;4.43;2.47;;;;;;;1.47;95.68;102854.91;5077563;28;20495;-64
2023/03/01 06:54:22;;;;;;;4.97;2.60;;;;;;;1.70;95.79;102885.41;5077056;28;20035;-64
2023/03/01 06:56:48;;;;;;;2.72;2.10;;;;;;;1.84;95.52;102885.44;5077387;28;20030;-64
2023/03/01 06:59:14;;;;;;;2.55;1.92;;;;;;;1.93;95.53;102878.72;5076293;28;20433;-64
2023/03/01 07:01:39;;;;;;;4.93;2.45;;;;;;;1.97;95.36;102877.59;5071955;28;20044;-64
2023/03/01 07:04:04;;;;;;;3.25;2.30;;;;;;;1.97;95.39;102878.44;5075096;28;20395;-65
2023/03/01 07:06:30;;;;;;;4.95;2.45;;;;;;;2.06;95.16;102887.66;5075871;28;20028;-64
2023/03/01 07:08:55;;;;;;;3.85;2.63;;;;;;;2.05;95.14;102889.47;5075934;28;20028;-64
2023/03/01 07:11:21;;;;;;;4.15;2.30;;;;;;;2.15;95.20;102891.56;5077781;28;20043;-64
2023/03/01 07:13:46;;;;;;;4.65;2.17;;;;;;;2.16;95.45;102901.25;5094536;28;20105;-64
2023/03/01 07:16:12;;;;;;;3.20;2.22;;;;;;;2.20;95.75;102900.97;5078720;28;20025;-64
2023/03/01 07:18:37;;;;;;;5.72;2.55;;;;;;;2.34;95.06;102908.09;5078634;28;20036;-64
2023/03/01 07:21:12;;;;;;;5.38;2.40;;;;;;;2.43;94.80;102901.38;5078890;28;20039;-64
2023/03/01 07:23:37;;;;;;;3.40;2.00;;;;;;;2.51;95.07;102899.91;5078969;28;20020;-65
2023/03/01 07:26:03;;;;;;;3.95;2.13;;;;;;;2.62;95.21;102901.94;5078308;28;20055;-64
2023/03/01 07:28:29;;;;;;;4.65;2.25;;;;;;;2.68;94.54;102906.88;5078682;28;20028;-65
2023/03/01 07:30:55;;;;;;;2.80;2.20;;;;;;;2.75;94.82;102912.66;5078536;28;20036;-64
2023/03/01 07:33:20;;;;;;;3.47;2.30;;;;;;;2.83;94.21;102910.34;5093845;28;20040;-65
2023/03/01 07:35:46;;;;;;;3.75;2.08;;;;;;;2.80;94.64;102894.59;5078887;28;20386;-65
2023/03/01 07:38:12;;;;;;;4.18;2.17;;;;;;;2.87;95.21;102905.69;5078141;28;20032;-65
2023/03/01 07:40:37;;;;;;;2.38;1.50;;;;;;;2.86;95.17;102899.53;5083634;28;20029;-64
2023/03/01 07:43:03;;;;;;;2.78;1.60;;;;;;;2.95;96.00;102914.91;5085429;28;20093;-64
2023/03/01 07:45:29;;;;;;;3.00;1.58;;;;;;;3.02;95.78;102924.19;5084126;28;20358;-64
2023/03/01 07:47:55;;;;;;;3.88;1.70;;;;;;;3.10;95.68;102920.19;5085078;28;20036;-64
2023/03/01 07:50:22;;;;;;;6.10;1.83;;;;;;;3.03;95.63;102898.44;5085269;28;20063;-64
2023/03/01 07:52:49;;;;;;;2.55;1.50;;;;;;;3.17;96.25;102925.00;5085147;28;20033;-64
2023/03/01 07:55:15;;;;;;;3.50;1.40;;;;;;;3.17;96.64;102909.03;5084329;28;20024;-64
2023/03/01 07:57:40;;;;;;;3.35;1.70;;;;;;;3.30;97.26;102925.91;5084601;28;20058;-65
2023/03/01 08:00:07;;;;;;;3.38;1.48;;;;;;;3.43;96.65;102927.78;5084932;28;20028;-64
2023/03/01 08:02:33;;;;;;;3.95;1.70;;;;;;;3.65;96.48;102925.44;5085036;28;20559;-65
2023/03/01 08:04:58;;;;;;;3.92;1.60;;;;;;;3.75;96.04;102921.19;5085090;28;20118;-64
2023/03/01 08:07:24;;;;;;;3.38;1.73;;;;;;;3.81;96.71;102924.38;5084653;28;20040;-65
2023/03/01 08:09:49;;;;;;;2.88;1.80;;;;;;;3.93;95.63;102928.91;5082926;28;20387;-65
2023/03/01 08:12:16;;;;;;;3.22;1.65;;;;;;;4.05;95.62;102928.09;5084792;28;20105;-65
2023/03/01 08:14:42;;;;;;;5.15;1.83;;;;;;;4.26;95.56;102930.22;5084882;28;20024;-64
2023/03/01 08:17:08;;;;;;;3.78;1.50;;;;;;;4.15;95.92;102928.31;5084265;28;20085;-64
2023/03/01 08:19:34;;;;;;;2.47;1.67;;;;;;;4.33;95.48;102924.38;5084571;28;20135;-64
2023/03/01 08:22:02;;;;;;;2.88;1.25;;;;;;;4.48;95.74;102931.31;5079438;28;20025;-64
2023/03/01 08:24:28;;;;;;;2.47;1.17;;;;;;;4.31;96.15;102934.28;5080366;28;20390;-64
2023/03/01 08:26:54;;;;;;;5.00;1.40;;;;;;;4.48;96.07;102930.47;5084495;28;20129;-65
2023/03/01 08:29:20;;;;;;;1.80;1.35;;;;;;;4.53;95.76;102924.78;5084092;28;20032;-64
2023/03/01 08:31:47;;;;;;;3.17;1.30;;;;;;;4.68;95.61;102921.06;5084312;28;20103;-65
2023/03/01 08:34:16;;;;;;;2.75;1.20;;;;;;;4.86;95.62;102926.88;5084736;28;20024;-64
2023/03/01 08:36:44;;;;;;;2.10;1.20;;;;;;;4.86;95.27;102921.53;5085136;28;20025;-64
2023/03/01 08:39:12;;;;;;;2.30;1.20;;;;;;;4.89;95.36;102922.19;5083073;28;20032;-65
2023/03/01 08:41:39;;;;;;;1.92;1.00;;;;;;;4.83;95.41;102919.09;5084570;28;20031;-65
2023/03/01 08:44:04;;;;;;;1.63;0.90;;;;;;;4.79;96.02;102915.78;5084141;28;20035;-65
2023/03/01 08:46:33;;;;;;;1.67;0.90;;;;;;;4.94;95.63;102925.38;5084000;28;20119;-65
2023/03/01 08:48:59;;;;;;;2.30;1.05;;;;;;;4.81;95.98;102927.22;5083435;28;20024;-65
2023/03/01 08:51:25;;;;;;;2.90;1.00;;;;;;;4.89;96.96;102926.66;5079695;28;20108;-65
2023/03/01 08:53:51;;;;;;;3.22;0.90;;;;;;;5.03;96.48;102931.84;5078240;28;20055;-64
2023/03/01 08:56:18;;;;;;;1.33;0.82;;;;;;;5.00;95.99;102923.22;5094567;28;20028;-65
2023/03/01 08:58:48;;;;;;;2.03;0.90;;;;;;;4.91;95.45;102928.28;5080871;28;20055;-65
2023/03/01 09:01:16;;;;;;;1.77;0.90;;;;;;;4.82;95.52;102912.06;5081478;28;20090;-65
2023/03/01 09:03:42;;;;;;;1.58;0.88;;;;;;;5.23;95.14;102924.22;5082080;28;20436;-65
2023/03/01 09:06:09;;;;;;;1.73;0.93;;;;;;;5.23;94.62;102908.22;5081770;28;20062;-65
2023/03/01 09:08:39;;;;;;;2.70;1.35;;;;;;;5.25;94.32;102903.63;5080840;28;20028;-65
2023/03/01 09:11:07;;;;;;;2.00;0.82;;;;;;;5.25;93.09;102911.63;5079007;28;20028;-65
2023/03/01 09:13:33;;;;;;;1.83;0.80;;;;;;;5.55;92.93;102914.69;5079764;28;20084;-65
2023/03/01 09:16:01;;;;;;;1.45;0.70;;;;;;;5.48;92.99;102908.09;5079987;28;20132;-65
2023/03/01 09:18:27;;;;;;;1.45;0.68;;;;;;;5.50;91.75;102887.50;5061707;28;20540;-65
2023/03/01 09:20:54;;;;;;;2.63;0.90;;;;;;;5.76;91.63;102912.25;5079177;28;20056;-65
2023/03/01 09:23:21;;;;;;;3.15;0.80;;;;;;;5.86;90.72;102915.94;5079056;28;20489;-65
2023/03/01 09:25:46;;;;;;;1.50;0.80;;;;;;;5.84;90.19;102917.00;5079738;28;20179;-66
2023/03/01 09:28:12;;;;;;;3.67;0.70;;;;;;;6.19;89.80;102917.03;5078199;28;20166;-65
2023/03/01 09:30:37;;;;;;;0.98;0.47;;;;;;;6.27;90.54;102921.75;5077789;28;20032;-66
2023/03/01 09:33:02;;;;;;;1.45;0.60;;;;;;;6.30;89.20;102919.69;5074986;28;20029;-66
2023/03/01 09:35:28;;;;;;;1.17;0.70;;;;;;;6.34;88.71;102917.63;5077923;28;20028;-66
2023/03/01 09:37:53;;;;;;;2.70;0.60;;;;;;;6.43;88.11;102913.41;5077943;28;20163;-66
2023/03/01 09:40:23;;;;;;;1.02;0.43;;;;;;;6.53;88.16;102899.19;5079700;28;20058;-65
2023/03/01 09:42:59;;;;;;;3.42;0.70;;;;;;;6.84;88.90;102907.44;5077024;28;20021;-65
2023/03/01 09:45:27;;;;;;;1.23;0.43;;;;;;;6.82;88.89;102898.66;5078744;28;20436;-66
2023/03/01 09:47:54;;;;;;;1.02;0.50;;;;;;;6.59;86.21;102898.69;5079076;28;20024;-65
2023/03/01 09:50:20;;;;;;;1.02;0.50;;;;;;;6.72;86.37;102900.38;5078841;28;20067;-65
2023/03/01 09:52:53;;;;;;;1.30;0.50;;;;;;;6.85;85.82;102911.81;5085074;28;20035;-65
2023/03/01 09:55:52;;;;;;;1.55;0.55;;;;;;;6.89;84.18;102899.91;5085495;28;20054;-65
2023/03/01 09:58:36;;;;;;;2.22;0.70;;;;;;;7.01;83.69;102906.91;5100814;28;20486;-65
2023/03/01 10:01:32;;;;;;;1.77;0.50;;;;;;;6.94;82.74;102907.56;5085867;28;20078;-65
2023/03/01 10:04:28;;;;;;;1.25;0.40;;;;;;;6.99;84.39;102906.22;5084974;28;20036;-65
2023/03/01 10:07:33;;;;;;;0.90;0.50;;;;;;;6.87;83.16;102911.69;5084447;28;20029;-65
2023/03/01 10:10:00;;;;;;;1.93;0.50;;;;;;;6.97;85.24;102907.31;5085321;28;20108;-65
2023/03/01 10:12:35;;;;;;;1.70;0.50;;;;;;;7.21;82.59;102909.81;5084384;28;20281;-65
2023/03/01 10:15:12;;;;;;;1.10;0.35;;;;;;;7.06;81.77;102907.41;5084715;28;20024;-65
2023/03/01 10:17:50;;;;;;;1.02;0.40;;;;;;;7.38;81.58;102901.22;5083222;28;20086;-65
2023/03/01 10:20:16;;;;;;;1.95;0.50;;;;;;;7.46;83.31;102904.13;5082943;28;20165;-65
2023/03/01 10:22:41;;;;;;;1.40;0.40;;;;;;;7.52;80.35;102897.44;5081391;28;20024;-66
2023/03/01 10:25:12;;;;;;;2.15;0.68;;;;;;;7.62;79.90;102900.19;5082361;28;20032;-65
2023/03/01 10:27:52;;;;;;;1.23;0.45;;;;;;;7.66;78.53;102888.22;5076659;28;20024;-66
2023/03/01 10:30:22;;;;;;;1.90;0.45;;;;;;;7.85;79.75;102895.59;5076289;28;20024;-65
2023/03/01 10:32:53;;;;;;;0.80;0.40;;;;;;;7.91;80.12;102900.41;5077523;28;20548;-65
2023/03/01 10:35:21;;;;;;;3.42;0.60;;;;;;;7.94;80.35;102881.38;5077545;28;20391;-66
2023/03/01 10:37:57;;;;;;;1.20;0.45;;;;;;;7.85;78.97;102907.16;5077947;28;20028;-65
2023/03/01 10:40:23;;;;;;;1.02;0.40;;;;;;;8.10;78.55;102900.53;5078439;28;20027;-65
2023/03/01 10:42:49;;;;;;;1.85;0.70;;;;;;;8.08;79.12;102898.97;5077746;28;20016;-66
2023/03/01 10:45:24;;;;;;;0.95;0.30;;;;;;;8.13;77.95;102894.06;5078134;28;20055;-66
2023/03/01 10:48:19;;;;;;;1.95;0.30;;;;;;;8.10;76.37;102892.50;5078549;28;20081;-65
2023/03/01 10:50:50;;;;;;;1.98;0.40;;;;;;;8.39;77.16;102898.06;5078443;28;20036;-65
2023/03/01 10:53:28;;;;;;;1.25;0.40;;;;;;;8.15;72.09;102900.16;5078053;28;20041;-66
2023/03/01 10:56:07;;;;;;;1.75;0.40;;;;;;;8.07;72.53;102891.91;5078497;28;20091;-65
2023/03/01 10:58:35;;;;;;;0.93;0.40;;;;;;;8.24;73.34;102899.34;5078290;28;20048;-65
2023/03/01 11:01:04;;;;;;;0.60;0.10;;;;;;;8.22;71.49;102894.13;5078572;28;20060;-65
2023/03/01 11:03:36;;;;;;;2.08;0.30;;;;;;;8.27;72.20;102890.19;5078442;28;20021;-65
2023/03/01 11:06:04;;;;;;;1.00;0.30;;;;;;;8.37;72.05;102891.09;5077862;28;20184;-65
2023/03/01 11:08:38;;;;;;;1.10;0.40;;;;;;;8.22;69.99;102886.06;5077699;28;20028;-65
2023/03/01 11:11:31;;;;;;;1.25;0.25;;;;;;;8.33;67.44;102892.34;5078188;28;20037;-65
2023/03/01 11:14:02;;;;;;;2.35;0.70;;;;;;;8.33;72.07;102890.50;5069935;28;20115;-65
2023/03/01 11:16:37;;;;;;;1.60;0.52;;;;;;;7.96;72.43;102892.81;5076401;28;20094;-65
2023/03/01 11:19:08;;;;;;;1.08;0.57;;;;;;;7.59;73.78;102897.78;5077853;28;20135;-65
2023/03/01 11:21:39;;;;;;;2.08;0.50;;;;;;;7.49;74.72;102890.50;5080271;28;20088;-65
2023/03/01 11:24:09;;;;;;;3.67;0.73;;;;;;;7.48;74.78;102888.81;5098251;28;20021;-65
2023/03/01 11:26:40;;;;;;;2.00;0.60;;;;;;;7.54;74.61;102890.09;5076570;28;20025;-65
2023/03/01 11:29:16;;;;;;;2.08;0.80;;;;;;;7.46;75.03;102895.25;5077439;28;20157;-65
2023/03/01 11:31:43;;;;;;;1.13;0.60;;;;;;;7.49;75.44;102893.19;5081477;28;20025;-65
2023/03/01 11:34:17;;;;;;;1.58;0.63;;;;;;;7.44;74.79;102890.00;5080598;28;20040;-66
2023/03/01 11:36:58;;;;;;;1.20;0.43;;;;;;;7.64;74.57;102890.19;5080525;28;20025;-65
2023/03/01 11:39:23;;;;;;;1.42;0.50;;;;;;;7.69;74.46;102893.34;5080436;28;20036;-65
2023/03/01 11:42:00;;;;;;;1.92;0.65;;;;;;;7.65;75.26;102881.16;5080837;28;20086;-65